Rentchler, Illinois
Current Conditions -  °F | °C
As of 4:33 AM on Sunday 26 Oct 2014 (Local Time) from KBLV Reporting Station
Haze Haze  
Wind Chill: 50°   Ceiling: Unl
Heat Index: 50°   Visibility: 4mi
Dew Point: 46°   Wind: 2mph
Humidity: 87%   Direction: 260°W
Pressure: 30.02"   Gusts: NA
Location:  38.5093°N, 89.8955°W
Report Text: KBLV 260933Z AUTO 26002KT 4SM R32R/4500FT BR CLR 10/08 A3002 RMK AO2 $
Loading
Personal Weather Stations






























Interactive Weather Map New forecast layout! Learn more

10-Day Weather Forecast

Advertisements
Track Severe Weather on mobile